sensor_id;sensor_type;location;lat;lon;timestamp;P1;durP1;ratioP1;P2;durP2;ratioP2
11443;SDS011;5778;47.856;12.154;2023-06-22T00:02:21;8.60;;;6.43;;
11443;SDS011;5778;47.856;12.154;2023-06-22T00:04:48;8.87;;;5.93;;
11443;SDS011;5778;47.856;12.154;2023-06-22T00:07:14;9.03;;;5.97;;
11443;SDS011;5778;47.856;12.154;2023-06-22T00:09:43;10.10;;;6.90;;
11443;SDS011;5778;47.856;12.154;2023-06-22T00:12:10;8.50;;;6.47;;
11443;SDS011;5778;47.856;12.154;2023-06-22T00:14:37;8.03;;;6.00;;
11443;SDS011;5778;47.856;12.154;2023-06-22T00:17:04;13.90;;;6.60;;
11443;SDS011;5778;47.856;12.154;2023-06-22T00:19:31;9.50;;;6.53;;
11443;SDS011;5778;47.856;12.154;2023-06-22T00:22:00;12.47;;;6.80;;
11443;SDS011;5778;47.856;12.154;2023-06-22T00:24:28;9.17;;;6.67;;
11443;SDS011;5778;47.856;12.154;2023-06-22T00:26:57;9.07;;;5.70;;
11443;SDS011;5778;47.856;12.154;2023-06-22T00:29:24;6.83;;;5.67;;
11443;SDS011;5778;47.856;12.154;2023-06-22T00:31:50;8.87;;;6.20;;
11443;SDS011;5778;47.856;12.154;2023-06-22T00:34:18;9.07;;;5.83;;
11443;SDS011;5778;47.856;12.154;2023-06-22T00:36:44;10.80;;;5.97;;
11443;SDS011;5778;47.856;12.154;2023-06-22T00:39:12;8.50;;;5.57;;
11443;SDS011;5778;47.856;12.154;2023-06-22T00:41:39;10.10;;;6.23;;
11443;SDS011;5778;47.856;12.154;2023-06-22T00:44:07;12.17;;;5.50;;
11443;SDS011;5778;47.856;12.154;2023-06-22T00:46:34;9.13;;;6.13;;
11443;SDS011;5778;47.856;12.154;2023-06-22T00:49:01;7.60;;;5.60;;
11443;SDS011;5778;47.856;12.154;2023-06-22T00:51:30;11.93;;;5.93;;
11443;SDS011;5778;47.856;12.154;2023-06-22T00:53:58;8.37;;;5.47;;
11443;SDS011;5778;47.856;12.154;2023-06-22T00:56:25;9.43;;;5.10;;
11443;SDS011;5778;47.856;12.154;2023-06-22T00:58:55;10.07;;;6.13;;
11443;SDS011;5778;47.856;12.154;2023-06-22T01:01:24;7.63;;;5.07;;
11443;SDS011;5778;47.856;12.154;2023-06-22T01:03:51;9.47;;;6.07;;
11443;SDS011;5778;47.856;12.154;2023-06-22T01:06:25;13.63;;;6.67;;
11443;SDS011;5778;47.856;12.154;2023-06-22T01:09:05;10.23;;;6.33;;
11443;SDS011;5778;47.856;12.154;2023-06-22T01:11:37;10.60;;;6.03;;
11443;SDS011;5778;47.856;12.154;2023-06-22T01:14:12;13.87;;;6.40;;
11443;SDS011;5778;47.856;12.154;2023-06-22T01:16:44;8.63;;;5.57;;
11443;SDS011;5778;47.856;12.154;2023-06-22T01:19:18;9.77;;;6.27;;
11443;SDS011;5778;47.856;12.154;2023-06-22T01:21:55;9.87;;;6.17;;
11443;SDS011;5778;47.856;12.154;2023-06-22T01:24:26;7.37;;;6.07;;
11443;SDS011;5778;47.856;12.154;2023-06-22T01:27:04;10.73;;;6.10;;
11443;SDS011;5778;47.856;12.154;2023-06-22T01:29:43;10.00;;;5.57;;
11443;SDS011;5778;47.856;12.154;2023-06-22T01:32:10;10.77;;;5.73;;
11443;SDS011;5778;47.856;12.154;2023-06-22T01:34:39;9.17;;;5.97;;
11443;SDS011;5778;47.856;12.154;2023-06-22T01:37:07;8.13;;;5.53;;
11443;SDS011;5778;47.856;12.154;2023-06-22T01:39:35;9.97;;;6.47;;
11443;SDS011;5778;47.856;12.154;2023-06-22T01:42:03;11.47;;;6.30;;
11443;SDS011;5778;47.856;12.154;2023-06-22T01:44:31;9.23;;;5.80;;
11443;SDS011;5778;47.856;12.154;2023-06-22T01:47:01;8.37;;;5.83;;
11443;SDS011;5778;47.856;12.154;2023-06-22T01:49:29;10.53;;;6.33;;
11443;SDS011;5778;47.856;12.154;2023-06-22T01:51:56;13.20;;;6.90;;
11443;SDS011;5778;47.856;12.154;2023-06-22T01:54:23;7.50;;;6.00;;
11443;SDS011;5778;47.856;12.154;2023-06-22T01:56:50;10.27;;;5.73;;
11443;SDS011;5778;47.856;12.154;2023-06-22T01:59:18;7.60;;;5.10;;
11443;SDS011;5778;47.856;12.154;2023-06-22T02:01:53;9.17;;;6.30;;
11443;SDS011;5778;47.856;12.154;2023-06-22T02:04:26;9.57;;;5.83;;
11443;SDS011;5778;47.856;12.154;2023-06-22T02:06:59;9.90;;;6.13;;
11443;SDS011;5778;47.856;12.154;2023-06-22T02:09:28;10.50;;;6.30;;
11443;SDS011;5778;47.856;12.154;2023-06-22T02:11:57;10.03;;;6.30;;
11443;SDS011;5778;47.856;12.154;2023-06-22T02:14:27;10.77;;;7.13;;
11443;SDS011;5778;47.856;12.154;2023-06-22T02:16:54;9.87;;;6.57;;
11443;SDS011;5778;47.856;12.154;2023-06-22T02:19:26;8.47;;;6.40;;
11443;SDS011;5778;47.856;12.154;2023-06-22T02:21:53;9.93;;;7.40;;
11443;SDS011;5778;47.856;12.154;2023-06-22T02:24:20;11.33;;;7.53;;
11443;SDS011;5778;47.856;12.154;2023-06-22T02:26:48;12.73;;;7.00;;
11443;SDS011;5778;47.856;12.154;2023-06-22T02:29:15;8.83;;;6.07;;
11443;SDS011;5778;47.856;12.154;2023-06-22T02:31:43;11.80;;;6.83;;
11443;SDS011;5778;47.856;12.154;2023-06-22T02:34:11;10.50;;;6.67;;
11443;SDS011;5778;47.856;12.154;2023-06-22T02:36:45;12.57;;;6.00;;
11443;SDS011;5778;47.856;12.154;2023-06-22T02:39:16;10.20;;;6.37;;
11443;SDS011;5778;47.856;12.154;2023-06-22T02:41:45;10.50;;;6.83;;
11443;SDS011;5778;47.856;12.154;2023-06-22T02:44:14;8.60;;;6.43;;
11443;SDS011;5778;47.856;12.154;2023-06-22T02:46:41;9.73;;;6.77;;
11443;SDS011;5778;47.856;12.154;2023-06-22T02:49:08;9.37;;;6.43;;
11443;SDS011;5778;47.856;12.154;2023-06-22T02:51:37;7.93;;;6.03;;
11443;SDS011;5778;47.856;12.154;2023-06-22T02:54:08;10.27;;;7.10;;
11443;SDS011;5778;47.856;12.154;2023-06-22T02:56:36;9.57;;;6.47;;
11443;SDS011;5778;47.856;12.154;2023-06-22T02:59:04;10.13;;;6.83;;
11443;SDS011;5778;47.856;12.154;2023-06-22T03:01:36;8.50;;;6.23;;
11443;SDS011;5778;47.856;12.154;2023-06-22T03:04:08;9.90;;;7.20;;
11443;SDS011;5778;47.856;12.154;2023-06-22T03:06:36;10.03;;;7.40;;
11443;SDS011;5778;47.856;12.154;2023-06-22T03:09:08;9.03;;;6.57;;
11443;SDS011;5778;47.856;12.154;2023-06-22T03:11:36;8.17;;;6.37;;
11443;SDS011;5778;47.856;12.154;2023-06-22T03:14:03;10.47;;;6.70;;
11443;SDS011;5778;47.856;12.154;2023-06-22T03:16:30;7.93;;;6.80;;
11443;SDS011;5778;47.856;12.154;2023-06-22T03:18:58;6.93;;;6.10;;
11443;SDS011;5778;47.856;12.154;2023-06-22T03:21:26;12.37;;;6.57;;
11443;SDS011;5778;47.856;12.154;2023-06-22T03:23:54;9.30;;;6.50;;
11443;SDS011;5778;47.856;12.154;2023-06-22T03:26:23;8.57;;;6.77;;
11443;SDS011;5778;47.856;12.154;2023-06-22T03:28:52;9.57;;;7.13;;
11443;SDS011;5778;47.856;12.154;2023-06-22T03:31:19;15.70;;;7.33;;
11443;SDS011;5778;47.856;12.154;2023-06-22T03:33:47;9.20;;;6.87;;
11443;SDS011;5778;47.856;12.154;2023-06-22T03:36:14;10.73;;;7.20;;
11443;SDS011;5778;47.856;12.154;2023-06-22T03:38:44;10.20;;;7.20;;
11443;SDS011;5778;47.856;12.154;2023-06-22T03:41:11;10.40;;;8.17;;
11443;SDS011;5778;47.856;12.154;2023-06-22T03:43:41;11.13;;;7.37;;
11443;SDS011;5778;47.856;12.154;2023-06-22T03:46:08;11.70;;;7.83;;
11443;SDS011;5778;47.856;12.154;2023-06-22T03:48:35;11.20;;;7.90;;
11443;SDS011;5778;47.856;12.154;2023-06-22T03:51:02;11.93;;;7.93;;
11443;SDS011;5778;47.856;12.154;2023-06-22T03:53:29;11.47;;;7.60;;
11443;SDS011;5778;47.856;12.154;2023-06-22T03:55:56;10.03;;;7.90;;
11443;SDS011;5778;47.856;12.154;2023-06-22T03:58:23;11.57;;;7.80;;
11443;SDS011;5778;47.856;12.154;2023-06-22T04:00:52;11.63;;;7.50;;
11443;SDS011;5778;47.856;12.154;2023-06-22T04:03:19;11.87;;;7.60;;
11443;SDS011;5778;47.856;12.154;2023-06-22T04:05:46;9.80;;;7.23;;
11443;SDS011;5778;47.856;12.154;2023-06-22T04:08:13;10.07;;;7.53;;
11443;SDS011;5778;47.856;12.154;2023-06-22T04:10:41;9.90;;;7.07;;
11443;SDS011;5778;47.856;12.154;2023-06-22T04:13:08;9.73;;;7.97;;
11443;SDS011;5778;47.856;12.154;2023-06-22T04:15:35;11.47;;;7.70;;
11443;SDS011;5778;47.856;12.154;2023-06-22T04:18:04;8.93;;;7.87;;
11443;SDS011;5778;47.856;12.154;2023-06-22T04:20:31;10.90;;;8.70;;
11443;SDS011;5778;47.856;12.154;2023-06-22T04:22:58;13.00;;;7.93;;
11443;SDS011;5778;47.856;12.154;2023-06-22T04:25:25;14.17;;;7.27;;
11443;SDS011;5778;47.856;12.154;2023-06-22T04:27:52;10.93;;;7.57;;
11443;SDS011;5778;47.856;12.154;2023-06-22T04:30:19;8.23;;;7.33;;
11443;SDS011;5778;47.856;12.154;2023-06-22T04:32:46;9.83;;;7.47;;
11443;SDS011;5778;47.856;12.154;2023-06-22T04:35:24;11.77;;;7.40;;
11443;SDS011;5778;47.856;12.154;2023-06-22T04:37:53;8.00;;;6.27;;
11443;SDS011;5778;47.856;12.154;2023-06-22T04:40:21;8.60;;;7.23;;
11443;SDS011;5778;47.856;12.154;2023-06-22T04:42:48;13.13;;;7.20;;
11443;SDS011;5778;47.856;12.154;2023-06-22T04:45:19;10.40;;;7.43;;
11443;SDS011;5778;47.856;12.154;2023-06-22T04:47:46;9.43;;;6.67;;
11443;SDS011;5778;47.856;12.154;2023-06-22T04:50:13;10.13;;;6.83;;
11443;SDS011;5778;47.856;12.154;2023-06-22T04:52:43;9.30;;;6.90;;
11443;SDS011;5778;47.856;12.154;2023-06-22T04:55:10;9.23;;;7.83;;
11443;SDS011;5778;47.856;12.154;2023-06-22T04:57:37;13.17;;;8.13;;
11443;SDS011;5778;47.856;12.154;2023-06-22T05:00:05;10.57;;;8.37;;
11443;SDS011;5778;47.856;12.154;2023-06-22T05:02:37;10.63;;;7.60;;
11443;SDS011;5778;47.856;12.154;2023-06-22T05:05:05;12.60;;;7.20;;
11443;SDS011;5778;47.856;12.154;2023-06-22T05:07:32;10.27;;;8.27;;
11443;SDS011;5778;47.856;12.154;2023-06-22T05:10:01;13.30;;;8.20;;
11443;SDS011;5778;47.856;12.154;2023-06-22T05:12:29;12.07;;;8.37;;
11443;SDS011;5778;47.856;12.154;2023-06-22T05:14:57;11.13;;;7.70;;
11443;SDS011;5778;47.856;12.154;2023-06-22T05:17:24;11.20;;;7.80;;
11443;SDS011;5778;47.856;12.154;2023-06-22T05:19:51;10.50;;;7.93;;
11443;SDS011;5778;47.856;12.154;2023-06-22T05:22:18;10.43;;;7.10;;
11443;SDS011;5778;47.856;12.154;2023-06-22T05:24:45;15.47;;;8.80;;
11443;SDS011;5778;47.856;12.154;2023-06-22T05:27:14;10.80;;;7.70;;
11443;SDS011;5778;47.856;12.154;2023-06-22T05:29:41;12.20;;;8.27;;
11443;SDS011;5778;47.856;12.154;2023-06-22T05:32:09;11.33;;;7.60;;
11443;SDS011;5778;47.856;12.154;2023-06-22T05:34:36;11.20;;;8.03;;
11443;SDS011;5778;47.856;12.154;2023-06-22T05:37:03;11.27;;;8.47;;
11443;SDS011;5778;47.856;12.154;2023-06-22T05:39:30;13.00;;;8.60;;
11443;SDS011;5778;47.856;12.154;2023-06-22T05:41:57;11.13;;;8.20;;
11443;SDS011;5778;47.856;12.154;2023-06-22T05:44:25;13.03;;;7.83;;
11443;SDS011;5778;47.856;12.154;2023-06-22T05:46:52;8.57;;;7.10;;
11443;SDS011;5778;47.856;12.154;2023-06-22T05:49:19;14.33;;;8.33;;
11443;SDS011;5778;47.856;12.154;2023-06-22T05:51:47;11.47;;;8.57;;
11443;SDS011;5778;47.856;12.154;2023-06-22T05:54:14;10.73;;;7.63;;
11443;SDS011;5778;47.856;12.154;2023-06-22T05:56:43;11.93;;;8.50;;
11443;SDS011;5778;47.856;12.154;2023-06-22T05:59:10;9.63;;;7.73;;
11443;SDS011;5778;47.856;12.154;2023-06-22T06:01:39;13.30;;;7.97;;
11443;SDS011;5778;47.856;12.154;2023-06-22T06:04:05;11.63;;;8.20;;
11443;SDS011;5778;47.856;12.154;2023-06-22T06:06:33;12.03;;;8.30;;
11443;SDS011;5778;47.856;12.154;2023-06-22T06:09:02;10.07;;;7.37;;
11443;SDS011;5778;47.856;12.154;2023-06-22T06:11:29;12.23;;;8.00;;
11443;SDS011;5778;47.856;12.154;2023-06-22T06:13:56;8.43;;;7.60;;
11443;SDS011;5778;47.856;12.154;2023-06-22T06:16:23;13.10;;;8.10;;
11443;SDS011;5778;47.856;12.154;2023-06-22T06:18:51;12.87;;;8.00;;
11443;SDS011;5778;47.856;12.154;2023-06-22T06:21:19;11.03;;;7.70;;
11443;SDS011;5778;47.856;12.154;2023-06-22T06:23:46;12.37;;;7.93;;
11443;SDS011;5778;47.856;12.154;2023-06-22T06:26:13;14.13;;;8.60;;
11443;SDS011;5778;47.856;12.154;2023-06-22T06:28:41;10.83;;;8.13;;
11443;SDS011;5778;47.856;12.154;2023-06-22T06:31:08;9.50;;;7.50;;
11443;SDS011;5778;47.856;12.154;2023-06-22T06:33:37;11.80;;;8.03;;
11443;SDS011;5778;47.856;12.154;2023-06-22T06:36:05;10.43;;;8.03;;
11443;SDS011;5778;47.856;12.154;2023-06-22T06:38:33;8.97;;;7.80;;
11443;SDS011;5778;47.856;12.154;2023-06-22T06:41:00;12.40;;;8.10;;
11443;SDS011;5778;47.856;12.154;2023-06-22T06:43:27;10.17;;;7.47;;
11443;SDS011;5778;47.856;12.154;2023-06-22T06:45:54;13.07;;;7.67;;
11443;SDS011;5778;47.856;12.154;2023-06-22T06:48:21;14.53;;;7.53;;
11443;SDS011;5778;47.856;12.154;2023-06-22T06:50:48;14.90;;;7.40;;
11443;SDS011;5778;47.856;12.154;2023-06-22T06:53:16;9.57;;;7.10;;
11443;SDS011;5778;47.856;12.154;2023-06-22T06:55:43;13.00;;;8.20;;
11443;SDS011;5778;47.856;12.154;2023-06-22T06:58:10;13.17;;;8.00;;
11443;SDS011;5778;47.856;12.154;2023-06-22T07:00:38;13.37;;;8.40;;
11443;SDS011;5778;47.856;12.154;2023-06-22T07:03:05;14.00;;;8.40;;
11443;SDS011;5778;47.856;12.154;2023-06-22T07:05:33;9.97;;;7.67;;
11443;SDS011;5778;47.856;12.154;2023-06-22T07:08:00;14.60;;;8.23;;
11443;SDS011;5778;47.856;12.154;2023-06-22T07:10:29;13.10;;;7.03;;
11443;SDS011;5778;47.856;12.154;2023-06-22T07:12:56;11.97;;;7.07;;
11443;SDS011;5778;47.856;12.154;2023-06-22T07:15:23;10.53;;;7.60;;
11443;SDS011;5778;47.856;12.154;2023-06-22T07:17:50;8.80;;;6.43;;
11443;SDS011;5778;47.856;12.154;2023-06-22T07:20:17;11.40;;;7.10;;
11443;SDS011;5778;47.856;12.154;2023-06-22T07:22:45;11.17;;;7.13;;
11443;SDS011;5778;47.856;12.154;2023-06-22T07:25:12;11.73;;;7.63;;
11443;SDS011;5778;47.856;12.154;2023-06-22T07:27:44;12.60;;;7.37;;
11443;SDS011;5778;47.856;12.154;2023-06-22T07:30:13;8.97;;;7.70;;
11443;SDS011;5778;47.856;12.154;2023-06-22T07:32:40;15.17;;;7.50;;
11443;SDS011;5778;47.856;12.154;2023-06-22T07:35:07;12.43;;;7.50;;
11443;SDS011;5778;47.856;12.154;2023-06-22T07:37:35;13.00;;;7.63;;
11443;SDS011;5778;47.856;12.154;2023-06-22T07:40:02;7.73;;;6.63;;
11443;SDS011;5778;47.856;12.154;2023-06-22T07:42:31;10.40;;;6.37;;
11443;SDS011;5778;47.856;12.154;2023-06-22T07:45:01;12.50;;;7.37;;
11443;SDS011;5778;47.856;12.154;2023-06-22T07:47:29;14.67;;;6.57;;
11443;SDS011;5778;47.856;12.154;2023-06-22T07:50:00;9.03;;;6.70;;
11443;SDS011;5778;47.856;12.154;2023-06-22T07:52:28;12.53;;;6.33;;
11443;SDS011;5778;47.856;12.154;2023-06-22T07:54:56;10.73;;;6.13;;
11443;SDS011;5778;47.856;12.154;2023-06-22T07:57:22;12.23;;;6.43;;
11443;SDS011;5778;47.856;12.154;2023-06-22T07:59:57;11.43;;;7.03;;
11443;SDS011;5778;47.856;12.154;2023-06-22T08:02:26;10.77;;;6.47;;
11443;SDS011;5778;47.856;12.154;2023-06-22T08:04:53;10.37;;;6.20;;
11443;SDS011;5778;47.856;12.154;2023-06-22T08:07:19;10.27;;;6.43;;
11443;SDS011;5778;47.856;12.154;2023-06-22T08:09:46;9.18;;;6.40;;
11443;SDS011;5778;47.856;12.154;2023-06-22T08:12:14;14.77;;;7.07;;
11443;SDS011;5778;47.856;12.154;2023-06-22T08:14:41;9.18;;;6.40;;
11443;SDS011;5778;47.856;12.154;2023-06-22T08:17:09;10.55;;;6.20;;
11443;SDS011;5778;47.856;12.154;2023-06-22T08:19:38;11.03;;;6.43;;
11443;SDS011;5778;47.856;12.154;2023-06-22T08:22:06;10.75;;;7.60;;
11443;SDS011;5778;47.856;12.154;2023-06-22T08:24:32;12.77;;;7.17;;
11443;SDS011;5778;47.856;12.154;2023-06-22T08:26:59;9.77;;;7.27;;
11443;SDS011;5778;47.856;12.154;2023-06-22T08:29:26;14.10;;;7.10;;
11443;SDS011;5778;47.856;12.154;2023-06-22T08:31:53;11.63;;;6.63;;
11443;SDS011;5778;47.856;12.154;2023-06-22T08:34:20;9.83;;;7.17;;
11443;SDS011;5778;47.856;12.154;2023-06-22T08:36:54;12.73;;;7.33;;
11443;SDS011;5778;47.856;12.154;2023-06-22T08:39:21;13.70;;;6.53;;
11443;SDS011;5778;47.856;12.154;2023-06-22T08:41:48;12.50;;;6.43;;
11443;SDS011;5778;47.856;12.154;2023-06-22T08:44:17;13.43;;;6.00;;
11443;SDS011;5778;47.856;12.154;2023-06-22T08:46:45;10.35;;;5.85;;
11443;SDS011;5778;47.856;12.154;2023-06-22T08:49:12;11.95;;;6.35;;
11443;SDS011;5778;47.856;12.154;2023-06-22T08:51:39;9.88;;;5.85;;
11443;SDS011;5778;47.856;12.154;2023-06-22T08:54:07;11.65;;;6.30;;
11443;SDS011;5778;47.856;12.154;2023-06-22T08:56:34;12.02;;;6.20;;
11443;SDS011;5778;47.856;12.154;2023-06-22T08:59:01;11.07;;;6.53;;
11443;SDS011;5778;47.856;12.154;2023-06-22T09:01:28;9.65;;;5.68;;
11443;SDS011;5778;47.856;12.154;2023-06-22T09:03:55;13.60;;;6.10;;
11443;SDS011;5778;47.856;12.154;2023-06-22T09:06:23;10.18;;;6.00;;
11443;SDS011;5778;47.856;12.154;2023-06-22T09:08:50;11.93;;;6.13;;
11443;SDS011;5778;47.856;12.154;2023-06-22T09:11:18;11.23;;;5.47;;
11443;SDS011;5778;47.856;12.154;2023-06-22T09:13:45;8.45;;;5.45;;
11443;SDS011;5778;47.856;12.154;2023-06-22T09:16:12;10.93;;;5.32;;
11443;SDS011;5778;47.856;12.154;2023-06-22T09:18:40;11.75;;;6.00;;
11443;SDS011;5778;47.856;12.154;2023-06-22T09:21:07;10.00;;;5.90;;
11443;SDS011;5778;47.856;12.154;2023-06-22T09:23:34;12.75;;;5.85;;
11443;SDS011;5778;47.856;12.154;2023-06-22T09:26:01;9.52;;;5.40;;
11443;SDS011;5778;47.856;12.154;2023-06-22T09:28:30;7.20;;;5.35;;
11443;SDS011;5778;47.856;12.154;2023-06-22T09:30:58;10.32;;;5.35;;
11443;SDS011;5778;47.856;12.154;2023-06-22T09:33:25;11.65;;;5.47;;
11443;SDS011;5778;47.856;12.154;2023-06-22T09:35:52;15.30;;;5.95;;
11443;SDS011;5778;47.856;12.154;2023-06-22T09:38:19;8.30;;;5.45;;
11443;SDS011;5778;47.856;12.154;2023-06-22T09:40:46;10.48;;;5.97;;
11443;SDS011;5778;47.856;12.154;2023-06-22T09:43:13;12.30;;;5.65;;
11443;SDS011;5778;47.856;12.154;2023-06-22T09:45:41;13.90;;;6.43;;
11443;SDS011;5778;47.856;12.154;2023-06-22T09:48:08;8.75;;;5.20;;
11443;SDS011;5778;47.856;12.154;2023-06-22T09:50:36;12.77;;;5.18;;
11443;SDS011;5778;47.856;12.154;2023-06-22T09:53:03;9.00;;;5.22;;
11443;SDS011;5778;47.856;12.154;2023-06-22T09:55:29;9.00;;;5.00;;
11443;SDS011;5778;47.856;12.154;2023-06-22T09:57:56;9.77;;;5.40;;
11443;SDS011;5778;47.856;12.154;2023-06-22T10:00:23;9.38;;;5.22;;
11443;SDS011;5778;47.856;12.154;2023-06-22T10:02:53;8.82;;;5.80;;
11443;SDS011;5778;47.856;12.154;2023-06-22T10:05:21;10.85;;;5.32;;
11443;SDS011;5778;47.856;12.154;2023-06-22T10:07:48;9.60;;;5.13;;
11443;SDS011;5778;47.856;12.154;2023-06-22T10:10:14;10.02;;;5.10;;
11443;SDS011;5778;47.856;12.154;2023-06-22T10:12:42;10.27;;;6.22;;
11443;SDS011;5778;47.856;12.154;2023-06-22T10:15:12;11.27;;;5.07;;
11443;SDS011;5778;47.856;12.154;2023-06-22T10:17:39;10.80;;;5.82;;
11443;SDS011;5778;47.856;12.154;2023-06-22T10:20:08;9.05;;;5.90;;
11443;SDS011;5778;47.856;12.154;2023-06-22T10:22:38;12.07;;;5.90;;
11443;SDS011;5778;47.856;12.154;2023-06-22T10:25:06;12.48;;;5.82;;
11443;SDS011;5778;47.856;12.154;2023-06-22T10:27:33;11.43;;;5.93;;
11443;SDS011;5778;47.856;12.154;2023-06-22T10:30:00;11.90;;;6.15;;
11443;SDS011;5778;47.856;12.154;2023-06-22T10:32:27;8.98;;;5.68;;
11443;SDS011;5778;47.856;12.154;2023-06-22T10:34:54;13.23;;;5.05;;
11443;SDS011;5778;47.856;12.154;2023-06-22T10:37:23;11.55;;;5.45;;
11443;SDS011;5778;47.856;12.154;2023-06-22T10:39:50;12.45;;;5.85;;
11443;SDS011;5778;47.856;12.154;2023-06-22T10:42:17;7.95;;;5.18;;
11443;SDS011;5778;47.856;12.154;2023-06-22T10:44:44;9.75;;;5.13;;
11443;SDS011;5778;47.856;12.154;2023-06-22T10:47:10;11.63;;;5.50;;
11443;SDS011;5778;47.856;12.154;2023-06-22T10:49:37;8.55;;;5.25;;
11443;SDS011;5778;47.856;12.154;2023-06-22T10:52:05;10.95;;;5.30;;
11443;SDS011;5778;47.856;12.154;2023-06-22T10:54:35;11.30;;;5.20;;
11443;SDS011;5778;47.856;12.154;2023-06-22T10:57:03;11.35;;;5.45;;
11443;SDS011;5778;47.856;12.154;2023-06-22T10:59:30;9.43;;;5.18;;
11443;SDS011;5778;47.856;12.154;2023-06-22T11:01:57;12.15;;;5.95;;
11443;SDS011;5778;47.856;12.154;2023-06-22T11:04:24;9.25;;;5.05;;
11443;SDS011;5778;47.856;12.154;2023-06-22T11:06:51;10.70;;;4.85;;
11443;SDS011;5778;47.856;12.154;2023-06-22T11:09:18;11.77;;;4.95;;
11443;SDS011;5778;47.856;12.154;2023-06-22T11:11:47;12.23;;;4.97;;
11443;SDS011;5778;47.856;12.154;2023-06-22T11:14:14;9.63;;;4.30;;
11443;SDS011;5778;47.856;12.154;2023-06-22T11:16:40;12.25;;;4.75;;
11443;SDS011;5778;47.856;12.154;2023-06-22T11:19:07;12.52;;;5.13;;
11443;SDS011;5778;47.856;12.154;2023-06-22T11:21:34;9.88;;;4.28;;
11443;SDS011;5778;47.856;12.154;2023-06-22T11:24:01;10.25;;;4.30;;
11443;SDS011;5778;47.856;12.154;2023-06-22T11:26:29;12.48;;;5.00;;
11443;SDS011;5778;47.856;12.154;2023-06-22T11:28:58;14.10;;;4.95;;
11443;SDS011;5778;47.856;12.154;2023-06-22T11:31:25;10.57;;;4.80;;
11443;SDS011;5778;47.856;12.154;2023-06-22T11:33:52;14.05;;;4.57;;
11443;SDS011;5778;47.856;12.154;2023-06-22T11:36:19;13.25;;;5.43;;
11443;SDS011;5778;47.856;12.154;2023-06-22T11:38:46;8.70;;;4.63;;
11443;SDS011;5778;47.856;12.154;2023-06-22T11:41:12;10.20;;;4.78;;
11443;SDS011;5778;47.856;12.154;2023-06-22T11:43:39;13.65;;;4.95;;
11443;SDS011;5778;47.856;12.154;2023-06-22T11:46:07;13.15;;;5.53;;
11443;SDS011;5778;47.856;12.154;2023-06-22T11:48:34;10.60;;;5.82;;
11443;SDS011;5778;47.856;12.154;2023-06-22T11:51:01;7.47;;;4.95;;
11443;SDS011;5778;47.856;12.154;2023-06-22T11:53:29;12.75;;;5.45;;
11443;SDS011;5778;47.856;12.154;2023-06-22T11:55:56;14.05;;;5.63;;
11443;SDS011;5778;47.856;12.154;2023-06-22T11:58:23;9.52;;;4.82;;
11443;SDS011;5778;47.856;12.154;2023-06-22T12:00:50;14.00;;;4.85;;
11443;SDS011;5778;47.856;12.154;2023-06-22T12:03:19;10.88;;;5.20;;
11443;SDS011;5778;47.856;12.154;2023-06-22T12:05:46;11.60;;;4.93;;
11443;SDS011;5778;47.856;12.154;2023-06-22T12:08:13;9.73;;;4.90;;
11443;SDS011;5778;47.856;12.154;2023-06-22T12:10:40;12.60;;;5.15;;
11443;SDS011;5778;47.856;12.154;2023-06-22T12:13:07;12.30;;;4.68;;
11443;SDS011;5778;47.856;12.154;2023-06-22T12:15:34;11.32;;;4.47;;
11443;SDS011;5778;47.856;12.154;2023-06-22T12:18:01;15.68;;;5.18;;
11443;SDS011;5778;47.856;12.154;2023-06-22T12:20:29;15.20;;;4.90;;
11443;SDS011;5778;47.856;12.154;2023-06-22T12:22:56;13.55;;;4.88;;
11443;SDS011;5778;47.856;12.154;2023-06-22T12:25:24;14.10;;;4.38;;
11443;SDS011;5778;47.856;12.154;2023-06-22T12:27:52;10.15;;;4.15;;
11443;SDS011;5778;47.856;12.154;2023-06-22T12:30:19;10.75;;;4.45;;
11443;SDS011;5778;47.856;12.154;2023-06-22T12:32:45;12.85;;;4.50;;
11443;SDS011;5778;47.856;12.154;2023-06-22T12:35:13;11.82;;;4.75;;
11443;SDS011;5778;47.856;12.154;2023-06-22T12:37:42;13.85;;;4.93;;
11443;SDS011;5778;47.856;12.154;2023-06-22T12:40:10;9.10;;;4.43;;
11443;SDS011;5778;47.856;12.154;2023-06-22T12:42:38;12.63;;;5.10;;
11443;SDS011;5778;47.856;12.154;2023-06-22T12:45:07;10.48;;;4.28;;
11443;SDS011;5778;47.856;12.154;2023-06-22T12:47:34;11.05;;;4.60;;
11443;SDS011;5778;47.856;12.154;2023-06-22T12:50:01;11.18;;;4.80;;
11443;SDS011;5778;47.856;12.154;2023-06-22T12:52:30;14.70;;;5.10;;
11443;SDS011;5778;47.856;12.154;2023-06-22T12:54:58;16.13;;;5.32;;
11443;SDS011;5778;47.856;12.154;2023-06-22T12:57:25;13.90;;;5.68;;
11443;SDS011;5778;47.856;12.154;2023-06-22T12:59:52;14.43;;;4.80;;
11443;SDS011;5778;47.856;12.154;2023-06-22T13:02:19;11.55;;;4.78;;
11443;SDS011;5778;47.856;12.154;2023-06-22T13:04:46;10.07;;;4.38;;
11443;SDS011;5778;47.856;12.154;2023-06-22T13:07:13;10.73;;;4.55;;
11443;SDS011;5778;47.856;12.154;2023-06-22T13:09:40;12.20;;;4.75;;
11443;SDS011;5778;47.856;12.154;2023-06-22T13:12:08;11.27;;;4.90;;
11443;SDS011;5778;47.856;12.154;2023-06-22T13:14:35;10.75;;;4.35;;
11443;SDS011;5778;47.856;12.154;2023-06-22T13:17:02;12.85;;;4.32;;
11443;SDS011;5778;47.856;12.154;2023-06-22T13:19:29;11.02;;;4.63;;
11443;SDS011;5778;47.856;12.154;2023-06-22T13:21:57;13.55;;;4.90;;
11443;SDS011;5778;47.856;12.154;2023-06-22T13:24:25;14.30;;;4.75;;
11443;SDS011;5778;47.856;12.154;2023-06-22T13:26:52;13.35;;;5.00;;
11443;SDS011;5778;47.856;12.154;2023-06-22T13:29:21;14.48;;;4.78;;
11443;SDS011;5778;47.856;12.154;2023-06-22T13:31:49;8.60;;;4.45;;
11443;SDS011;5778;47.856;12.154;2023-06-22T13:34:16;9.57;;;4.40;;
11443;SDS011;5778;47.856;12.154;2023-06-22T13:36:43;10.57;;;4.47;;
11443;SDS011;5778;47.856;12.154;2023-06-22T13:39:11;10.80;;;4.47;;
11443;SDS011;5778;47.856;12.154;2023-06-22T13:41:38;8.80;;;4.57;;
11443;SDS011;5778;47.856;12.154;2023-06-22T13:44:04;9.23;;;3.97;;
11443;SDS011;5778;47.856;12.154;2023-06-22T13:46:33;15.27;;;4.60;;
11443;SDS011;5778;47.856;12.154;2023-06-22T13:48:59;8.02;;;4.32;;
11443;SDS011;5778;47.856;12.154;2023-06-22T13:51:26;12.85;;;4.70;;
11443;SDS011;5778;47.856;12.154;2023-06-22T13:53:53;10.45;;;4.50;;
11443;SDS011;5778;47.856;12.154;2023-06-22T13:56:20;9.93;;;4.43;;
11443;SDS011;5778;47.856;12.154;2023-06-22T13:58:47;7.78;;;4.00;;
11443;SDS011;5778;47.856;12.154;2023-06-22T14:01:15;9.73;;;4.25;;
11443;SDS011;5778;47.856;12.154;2023-06-22T14:03:43;10.10;;;4.75;;
11443;SDS011;5778;47.856;12.154;2023-06-22T14:06:13;9.80;;;4.53;;
11443;SDS011;5778;47.856;12.154;2023-06-22T14:08:40;11.82;;;4.90;;
11443;SDS011;5778;47.856;12.154;2023-06-22T14:11:08;14.95;;;4.72;;
11443;SDS011;5778;47.856;12.154;2023-06-22T14:13:34;12.85;;;4.80;;
11443;SDS011;5778;47.856;12.154;2023-06-22T14:16:03;10.35;;;4.43;;
11443;SDS011;5778;47.856;12.154;2023-06-22T14:18:31;11.75;;;4.38;;
11443;SDS011;5778;47.856;12.154;2023-06-22T14:20:59;8.48;;;4.22;;
11443;SDS011;5778;47.856;12.154;2023-06-22T14:23:26;11.27;;;4.50;;
11443;SDS011;5778;47.856;12.154;2023-06-22T14:25:53;10.15;;;3.92;;
11443;SDS011;5778;47.856;12.154;2023-06-22T14:28:20;14.82;;;4.45;;
11443;SDS011;5778;47.856;12.154;2023-06-22T14:30:47;10.77;;;4.60;;
11443;SDS011;5778;47.856;12.154;2023-06-22T14:33:13;14.38;;;4.75;;
11443;SDS011;5778;47.856;12.154;2023-06-22T14:35:40;11.57;;;4.22;;
11443;SDS011;5778;47.856;12.154;2023-06-22T14:38:09;10.85;;;4.55;;
11443;SDS011;5778;47.856;12.154;2023-06-22T14:40:35;12.13;;;4.25;;
11443;SDS011;5778;47.856;12.154;2023-06-22T14:43:02;10.65;;;4.03;;